createdAt,value
2023-02-11T00:03:59.265Z,2.74
2023-02-11T00:09:01.697Z,2.75
2023-02-11T00:14:05.857Z,2.84
2023-02-11T00:19:07.522Z,2.85
2023-02-11T00:24:09.116Z,3.01
2023-02-11T00:29:10.722Z,3.04
2023-02-11T00:34:12.337Z,3.07
2023-02-11T00:39:13.928Z,3.13
2023-02-11T00:44:15.614Z,3.07
2023-02-11T00:49:17.472Z,3.15
2023-02-11T00:54:19.073Z,3.22
2023-02-11T00:59:20.655Z,3.23
2023-02-11T01:04:22.246Z,3.20
2023-02-11T01:09:23.849Z,3.17
2023-02-11T01:14:25.546Z,3.14
2023-02-11T01:19:27.142Z,3.25
2023-02-11T01:24:28.863Z,3.29
2023-02-11T01:29:30.648Z,3.30
2023-02-11T01:34:32.339Z,3.34
2023-02-11T01:39:34.629Z,3.39
2023-02-11T01:44:39.159Z,3.31
2023-02-11T01:49:46.582Z,3.29
2023-02-11T01:55:11.989Z,3.32
2023-02-11T02:00:31.535Z,3.15
2023-02-11T02:05:51.376Z,3.19
2023-02-11T02:10:56.578Z,3.12
2023-02-11T02:16:01.247Z,3.29
2023-02-11T02:21:21.434Z,3.22
2023-02-11T02:26:52.480Z,3.29
2023-02-11T02:32:31.271Z,3.15
2023-02-11T02:37:45.038Z,3.21
2023-02-11T02:42:48.055Z,3.23
2023-02-11T02:47:49.692Z,3.15
2023-02-11T02:53:00.035Z,3.01
2023-02-11T02:58:32.773Z,2.93
2023-02-11T03:03:49.551Z,3.05
2023-02-11T03:09:01.051Z,3.04
2023-02-11T03:14:04.633Z,2.93
2023-02-11T03:19:14.351Z,2.88
2023-02-11T03:24:30.985Z,2.71
2023-02-11T03:29:41.632Z,2.61
2023-02-11T03:35:10.778Z,2.57
2023-02-11T03:40:22.251Z,2.47
2023-02-11T03:45:25.689Z,2.30
2023-02-11T03:50:30.812Z,2.20
2023-02-11T03:55:39.266Z,2.16
2023-02-11T04:00:42.906Z,2.20
2023-02-11T04:05:44.647Z,2.27
2023-02-11T04:10:46.377Z,2.34
2023-02-11T04:15:49.131Z,2.28
2023-02-11T04:20:51.109Z,2.25
2023-02-11T04:25:52.921Z,2.32
2023-02-11T04:30:55.122Z,2.26
2023-02-11T04:35:59.585Z,2.24
2023-02-11T04:41:01.321Z,2.32
2023-02-11T04:46:02.963Z,2.49
2023-02-11T04:51:04.894Z,2.61
2023-02-11T04:56:07.057Z,2.61
2023-02-11T05:01:12.115Z,2.58
2023-02-11T05:06:13.875Z,2.46
2023-02-11T05:11:21.694Z,2.34
2023-02-11T05:16:23.593Z,2.18
2023-02-11T05:21:25.320Z,2.14
2023-02-11T05:26:27.011Z,2.13
2023-02-11T05:31:28.682Z,2.17
2023-02-11T05:36:33.344Z,2.14
2023-02-11T05:41:35.145Z,2.00
2023-02-11T05:46:36.779Z,1.96
2023-02-11T05:51:38.478Z,1.83
2023-02-11T05:56:40.055Z,1.74
2023-02-11T06:01:41.817Z,1.70
2023-02-11T06:06:43.479Z,1.62
2023-02-11T06:11:45.104Z,1.72
2023-02-11T06:16:46.730Z,1.80
2023-02-11T06:21:48.343Z,1.85
2023-02-11T06:26:49.948Z,1.98
2023-02-11T06:31:51.601Z,1.97
2023-02-11T06:36:53.246Z,1.83
2023-02-11T06:41:54.949Z,1.74
2023-02-11T06:46:56.618Z,1.72
2023-02-11T06:51:58.262Z,1.72
2023-02-11T06:56:59.887Z,1.85
2023-02-11T07:02:01.526Z,1.96
2023-02-11T07:07:03.211Z,2.14
2023-02-11T07:12:04.980Z,2.20
2023-02-11T07:17:06.609Z,2.37
2023-02-11T07:22:08.328Z,2.52
2023-02-11T07:27:09.939Z,2.61
2023-02-11T07:32:11.825Z,2.72
2023-02-11T07:37:13.454Z,2.94
2023-02-11T07:42:15.734Z,3.07
2023-02-11T07:47:17.358Z,3.21
2023-02-11T07:52:19.075Z,3.28
2023-02-11T07:57:20.678Z,3.43
2023-02-11T08:02:23.118Z,3.57
2023-02-11T08:07:24.825Z,3.74
2023-02-11T08:12:26.410Z,3.76
2023-02-11T08:17:28.148Z,3.82
2023-02-11T08:22:32.628Z,3.78
2023-02-11T08:27:34.545Z,3.96
2023-02-11T08:32:36.341Z,4.09
2023-02-11T08:37:38.413Z,4.24
2023-02-11T08:42:40.189Z,4.41
2023-02-11T08:47:41.853Z,4.51
2023-02-11T08:52:44.644Z,4.45
2023-02-11T08:57:46.311Z,4.53
2023-02-11T09:02:47.993Z,4.57
2023-02-11T09:07:49.651Z,4.63
2023-02-11T09:12:51.331Z,4.62
2023-02-11T09:17:53.152Z,4.74
2023-02-11T09:22:57.620Z,4.83
2023-02-11T09:27:59.223Z,4.84
2023-02-11T09:33:00.861Z,4.85
2023-02-11T09:38:02.474Z,4.90
2023-02-11T09:43:21.102Z,4.99
2023-02-11T09:48:23.564Z,4.93
2023-02-11T09:53:43.147Z,4.99
2023-02-11T09:58:45.669Z,4.97
2023-02-11T10:04:09.187Z,4.91
2023-02-11T10:09:17.167Z,4.95
2023-02-11T10:14:47.390Z,4.80
2023-02-11T10:20:01.084Z,4.83
2023-02-11T10:25:17.258Z,4.84
2023-02-11T10:30:32.512Z,4.86
2023-02-11T10:35:34.202Z,5.04
2023-02-11T10:40:35.852Z,5.08
2023-02-11T10:45:43.423Z,5.15
2023-02-11T10:50:45.060Z,5.32
2023-02-11T10:55:57.514Z,5.35
2023-02-11T11:01:00.476Z,5.28
2023-02-11T11:06:05.568Z,5.28
2023-02-11T11:11:13.115Z,5.46
2023-02-11T11:16:14.923Z,5.54
2023-02-11T11:21:22.675Z,5.56
2023-02-11T11:26:27.694Z,5.51
2023-02-11T11:31:37.048Z,5.71
2023-02-11T11:36:39.971Z,5.83
2023-02-11T11:41:51.622Z,5.76
2023-02-11T11:47:11.265Z,5.76
2023-02-11T11:52:37.786Z,5.64
2023-02-11T11:57:39.739Z,5.61
2023-02-11T12:02:50.923Z,5.91
2023-02-11T12:08:14.412Z,5.81
2023-02-11T12:13:42.399Z,5.87
2023-02-11T12:18:56.084Z,5.99
2023-02-11T12:24:40.565Z,5.95
2023-02-11T12:30:03.996Z,5.83
2023-02-11T12:35:40.108Z,5.96
2023-02-11T12:41:39.685Z,5.96
2023-02-11T12:46:52.211Z,6.15
2023-02-11T12:52:44.292Z,6.05
2023-02-11T12:57:48.893Z,6.07
2023-02-11T13:03:01.512Z,6.14
2023-02-11T13:08:11.099Z,6.16
2023-02-11T13:13:33.160Z,6.30
2023-02-11T13:18:40.607Z,6.24
2023-02-11T13:23:45.160Z,6.22
2023-02-11T13:29:09.961Z,6.09
2023-02-11T13:34:41.000Z,6.28
2023-02-11T13:39:42.710Z,6.23
2023-02-11T13:44:44.504Z,6.11
2023-02-11T13:49:53.454Z,6.15
2023-02-11T13:54:59.453Z,6.23
2023-02-11T14:00:26.050Z,6.30
2023-02-11T14:05:50.752Z,6.24
2023-02-11T14:10:54.141Z,6.19
2023-02-11T14:16:11.153Z,6.25
2023-02-11T14:21:28.924Z,6.31
2023-02-11T14:26:47.320Z,6.29
2023-02-11T14:32:13.113Z,6.25
2023-02-11T14:37:19.464Z,6.25
2023-02-11T14:42:26.888Z,6.28
2023-02-11T14:47:41.944Z,6.19
2023-02-11T14:52:44.567Z,6.03
2023-02-11T14:57:49.662Z,6.13
2023-02-11T15:02:51.796Z,6.25
2023-02-11T15:08:00.788Z,6.18
2023-02-11T15:13:05.906Z,6.15
2023-02-11T15:18:09.672Z,6.13
2023-02-11T15:23:21.749Z,6.20
2023-02-11T15:28:26.806Z,6.11
2023-02-11T15:33:30.700Z,6.14
2023-02-11T15:38:32.613Z,6.09
2023-02-11T15:43:46.352Z,6.19
2023-02-11T15:48:51.390Z,6.15
2023-02-11T15:53:57.099Z,6.19
2023-02-11T15:59:09.276Z,6.09
2023-02-11T16:04:27.231Z,6.09
2023-02-11T16:09:35.303Z,6.28
2023-02-11T16:14:39.686Z,6.22
2023-02-11T16:19:47.407Z,6.21
2023-02-11T16:24:51.232Z,6.22
2023-02-11T16:29:53.207Z,6.13
2023-02-11T16:34:57.986Z,6.13
2023-02-11T16:39:59.668Z,6.01
2023-02-11T16:45:01.348Z,6.11
2023-02-11T16:50:04.488Z,6.12
2023-02-11T16:55:06.721Z,6.06
2023-02-11T17:00:08.988Z,5.94
2023-02-11T17:05:26.062Z,5.94
2023-02-11T17:10:27.739Z,5.97
2023-02-11T17:15:29.401Z,6.13
2023-02-11T17:20:31.079Z,6.18
2023-02-11T17:25:32.799Z,6.16
2023-02-11T17:30:34.598Z,6.22
2023-02-11T17:35:39.397Z,6.23
2023-02-11T17:40:41.015Z,6.06
2023-02-11T17:45:42.820Z,6.00
2023-02-11T17:50:44.606Z,5.96
2023-02-11T17:55:46.190Z,5.97
2023-02-11T18:00:47.980Z,6.02
2023-02-11T18:05:50.166Z,6.04
2023-02-11T18:10:52.007Z,5.85
2023-02-11T18:15:53.855Z,5.86
2023-02-11T18:20:57.318Z,5.81
2023-02-11T18:25:58.953Z,5.78
2023-02-11T18:31:01.804Z,5.76
2023-02-11T18:36:12.513Z,5.78
2023-02-11T18:41:14.627Z,5.73
2023-02-11T18:46:16.781Z,5.66
2023-02-11T18:51:18.801Z,5.64
2023-02-11T18:56:23.469Z,5.62
2023-02-11T19:01:27.630Z,5.71
2023-02-11T19:06:32.482Z,5.65
2023-02-11T19:11:54.789Z,5.61
2023-02-11T19:16:58.573Z,5.67
2023-02-11T19:22:03.227Z,5.70
2023-02-11T19:27:05.303Z,5.81
2023-02-11T19:32:07.424Z,5.81
2023-02-11T19:37:12.711Z,5.76
2023-02-11T19:42:15.237Z,5.76
2023-02-11T19:47:16.953Z,5.70
2023-02-11T19:52:18.600Z,5.69
2023-02-11T19:57:20.217Z,5.76
2023-02-11T20:02:22.000Z,5.87
2023-02-11T20:07:23.742Z,5.85
2023-02-11T20:12:25.472Z,5.89
2023-02-11T20:17:27.238Z,5.85
2023-02-11T20:22:28.921Z,5.84
2023-02-11T20:27:32.338Z,5.86
2023-02-11T20:32:38.142Z,5.82
2023-02-11T20:37:42.231Z,5.88
2023-02-11T20:42:45.433Z,5.81
2023-02-11T20:47:47.493Z,5.81
2023-02-11T20:52:49.142Z,5.94
2023-02-11T20:57:50.964Z,5.98
2023-02-11T21:02:53.482Z,5.93
2023-02-11T21:07:55.193Z,5.85
2023-02-11T21:12:57.125Z,5.81
2023-02-11T21:17:58.966Z,5.68
2023-02-11T21:23:00.562Z,5.61
2023-02-11T21:28:02.184Z,5.55
2023-02-11T21:33:03.980Z,5.53
2023-02-11T21:38:05.699Z,5.48
2023-02-11T21:43:07.505Z,5.43
2023-02-11T21:48:09.105Z,5.35
2023-02-11T21:53:12.016Z,5.36
2023-02-11T21:58:14.035Z,5.40
2023-02-11T22:03:15.679Z,5.47
2023-02-11T22:08:19.850Z,5.59
2023-02-11T22:13:22.017Z,5.83
2023-02-11T22:18:23.720Z,5.99
2023-02-11T22:23:25.327Z,6.04
2023-02-11T22:28:27.113Z,6.03
2023-02-11T22:33:28.925Z,6.10
2023-02-11T22:38:31.314Z,6.13
2023-02-11T22:43:32.928Z,6.18
2023-02-11T22:48:36.031Z,6.16
2023-02-11T22:53:37.800Z,6.16
2023-02-11T22:58:39.570Z,6.19
2023-02-11T23:03:41.330Z,6.19
2023-02-11T23:08:43.394Z,6.14
2023-02-11T23:13:46.408Z,6.02
2023-02-11T23:18:49.325Z,5.96
2023-02-11T23:23:58.610Z,5.94
2023-02-11T23:29:00.265Z,6.02
2023-02-11T23:34:01.855Z,6.04
2023-02-11T23:39:04.452Z,6.06
2023-02-11T23:44:06.074Z,6.07
2023-02-11T23:49:07.700Z,6.09
2023-02-11T23:54:13.284Z,6.04
2023-02-11T23:59:14.974Z,6.04
